Time;durP1;ratioP1;P1;durP2;ratioP2;P2;SDS_P1;SDS_P2;PMS_P1;PMS_P2;Temp;Humidity;BMP_temperature;BMP_pressure;BME280_temperature;BME280_humidity;BME280_pressure;Samples;Min_cycle;Max_cycle;Signal;HPM_P1;HPM_P2
2023/04/30 00:00:27;;;;;;;;;;;;;;;9.99;26.03;100732.19;5092587;28;19920;-65
2023/04/30 00:02:52;;;;;;;;;;;;;;;9.85;25.75;100726.63;5092017;28;20355;-64
2023/04/30 00:05:17;;;;;;;;;;;;;;;10.00;25.92;100721.28;5091822;28;19924;-65
2023/04/30 00:07:42;;;;;;;;;;;;;;;10.04;25.97;100735.97;5092176;28;20368;-64
2023/04/30 00:10:09;;;;;;;;;;;;;;;9.88;26.39;100734.31;5091751;28;19916;-64
2023/04/30 00:12:34;;;;;;;;;;;;;;;9.90;26.09;100734.13;5091899;28;20690;-65
2023/04/30 00:15:00;;;;;;;;;;;;;;;9.85;26.27;100729.31;5092156;28;19912;-65
2023/04/30 00:17:25;;;;;;;;;;;;;;;9.84;25.90;100727.66;5091818;28;19916;-64
2023/04/30 00:19:50;;;;;;;;;;;;;;;9.84;26.01;100727.66;5091945;28;20445;-63
2023/04/30 00:22:15;;;;;;;;;;;;;;;9.71;26.23;100732.78;5091133;28;19969;-64
2023/04/30 00:24:41;;;;;;;;;;;;;;;9.61;26.55;100740.25;5091729;28;19986;-65
2023/04/30 00:27:06;;;;;;;;;;;;;;;9.63;26.55;100732.84;5092036;28;19919;-64
2023/04/30 00:29:31;;;;;;;;;;;;;;;9.59;26.75;100728.88;5091375;28;19920;-64
2023/04/30 00:31:56;;;;;;;;;;;;;;;9.48;27.02;100720.25;5092354;28;20514;-65
2023/04/30 00:34:22;;;;;;;;;;;;;;;9.48;26.68;100730.97;5092482;28;20242;-65
2023/04/30 00:36:47;;;;;;;;;;;;;;;9.46;26.61;100732.16;5092347;28;19919;-64
2023/04/30 00:39:12;;;;;;;;;;;;;;;9.46;26.88;100730.31;5094071;28;20041;-64
2023/04/30 00:41:38;;;;;;;;;;;;;;;9.46;26.94;100735.66;5093629;28;19959;-64
2023/04/30 00:44:03;;;;;;;;;;;;;;;9.43;26.79;100738.69;5092405;28;19912;-64
2023/04/30 00:46:29;;;;;;;;;;;;;;;9.41;26.66;100738.06;5091864;28;19912;-64
2023/04/30 00:48:54;;;;;;;;;;;;;;;9.46;26.88;100738.34;5092012;28;20280;-63
2023/04/30 00:51:20;;;;;;;;;;;;;;;9.40;26.88;100739.06;5091507;28;20331;-64
2023/04/30 00:53:45;;;;;;;;;;;;;;;9.38;26.91;100741.09;5091281;28;19960;-64
2023/04/30 00:56:12;;;;;;;;;;;;;;;9.33;27.25;100748.84;5091491;28;19912;-64
2023/04/30 00:58:37;;;;;;;;;;;;;;;9.20;27.46;100741.38;5090293;28;20387;-64
2023/04/30 01:01:03;;;;;;;;;;;;;;;9.13;27.82;100740.44;5091265;28;19989;-63
2023/04/30 01:03:28;;;;;;;;;;;;;;;9.12;27.69;100752.19;5090583;28;20018;-64
2023/04/30 01:05:53;;;;;;;;;;;;;;;9.14;27.72;100750.16;5091041;28;19912;-65
2023/04/30 01:08:18;;;;;;;;;;;;;;;9.11;27.52;100751.31;5091163;28;19943;-64
2023/04/30 01:11:13;;;;;;;;;;;;;;;9.09;27.37;100752.53;5090969;28;20006;-65
2023/04/30 01:13:59;;;;;;;;;;;;;;;9.21;27.21;100753.78;5035492;28;19929;-64
2023/04/30 01:16:26;;;;;;;;;;;;;;;9.15;27.59;100759.00;5083791;28;19919;-64
2023/04/30 01:19:00;;;;;;;;;;;;;;;9.14;27.34;100752.81;5091342;28;20431;-64
2023/04/30 01:21:28;;;;;;;;;;;;;;;9.10;27.65;100755.03;5092296;28;19911;-64
2023/04/30 01:24:05;;;;;;;;;;;;;;;9.08;27.37;100765.09;5092250;28;19916;-64
2023/04/30 01:26:48;;;;;;;;;;;;;;;9.15;27.27;100769.72;5091491;28;19912;-64
2023/04/30 01:29:15;;;;;;;;;;;;;;;9.14;27.41;100766.22;5091666;28;19923;-65
2023/04/30 01:31:42;;;;;;;;;;;;;;;9.05;27.55;100778.00;5091587;28;19912;-64
2023/04/30 01:34:07;;;;;;;;;;;;;;;8.98;27.18;100785.06;5090971;28;20404;-65
2023/04/30 01:36:49;;;;;;;;;;;;;;;8.93;27.58;100790.09;5091556;28;19919;-64
2023/04/30 01:39:14;;;;;;;;;;;;;;;8.93;27.14;100785.56;5090693;28;19912;-63
2023/04/30 01:41:52;;;;;;;;;;;;;;;9.00;27.57;100788.41;5091046;28;19919;-64
2023/04/30 01:44:21;;;;;;;;;;;;;;;8.91;27.74;100788.44;5090277;28;19961;-63
2023/04/30 01:46:51;;;;;;;;;;;;;;;8.85;28.17;100791.81;5090884;28;20395;-64
2023/04/30 01:49:55;;;;;;;;;;;;;;;8.89;27.97;100794.97;5090651;28;19920;-64
2023/04/30 01:52:38;;;;;;;;;;;;;;;8.84;27.76;100786.63;5027678;28;20400;-64
2023/04/30 01:55:07;;;;;;;;;;;;;;;8.85;27.68;100794.50;5010846;28;19924;-64
2023/04/30 01:57:36;;;;;;;;;;;;;;;8.86;27.28;100795.34;5063912;28;19923;-64
2023/04/30 02:00:03;;;;;;;;;;;;;;;8.95;27.14;100796.94;5094319;28;19970;-64
2023/04/30 02:02:28;;;;;;;;;;;;;;;8.90;27.49;100793.97;5092496;28;20015;-64
2023/04/30 02:04:53;;;;;;;;;;;;;;;8.84;27.38;100800.00;5093996;28;20014;-64
2023/04/30 02:07:38;;;;;;;;;;;;;;;8.82;27.35;100797.53;5094855;28;19939;-65
2023/04/30 02:10:04;;;;;;;;;;;;;;;8.84;27.35;100797.34;5094302;28;19961;-64
2023/04/30 02:12:30;;;;;;;;;;;;;;;8.79;27.48;100794.38;5095089;28;19920;-62
2023/04/30 02:14:55;;;;;;;;;;;;;;;8.72;27.53;100795.03;5094070;28;19974;-63
2023/04/30 02:17:20;;;;;;;;;;;;;;;8.82;27.00;100796.69;5095875;28;19912;-62
2023/04/30 02:19:46;;;;;;;;;;;;;;;8.71;27.44;100793.38;5096316;28;19989;-63
2023/04/30 02:22:11;;;;;;;;;;;;;;;8.54;27.74;100799.78;5095386;28;19920;-64
2023/04/30 02:24:36;;;;;;;;;;;;;;;8.52;27.64;100788.41;5090288;28;19920;-65
2023/04/30 02:27:01;;;;;;;;;;;;;;;8.67;27.29;100791.22;5093509;28;19955;-63
2023/04/30 02:29:27;;;;;;;;;;;;;;;8.47;27.73;100785.44;5094399;28;20153;-64
2023/04/30 02:31:52;;;;;;;;;;;;;;;8.58;27.99;100790.44;5094018;28;20007;-63
2023/04/30 02:34:17;;;;;;;;;;;;;;;8.51;27.69;100787.59;5094114;28;19916;-64
2023/04/30 02:36:42;;;;;;;;;;;;;;;8.55;27.96;100788.09;5092971;28;20091;-64
2023/04/30 02:39:08;;;;;;;;;;;;;;;8.60;27.61;100792.91;5094284;28;20002;-64
2023/04/30 02:41:33;;;;;;;;;;;;;;;8.53;27.64;100784.75;5093655;28;19967;-64
2023/04/30 02:43:58;;;;;;;;;;;;;;;8.43;28.38;100792.13;5093875;28;19916;-65
2023/04/30 02:46:23;;;;;;;;;;;;;;;8.42;28.35;100787.78;5094020;28;20386;-63
2023/04/30 02:48:48;;;;;;;;;;;;;;;8.48;27.73;100793.28;5093570;28;19920;-64
2023/04/30 02:51:14;;;;;;;;;;;;;;;8.48;28.22;100792.44;5093576;28;20006;-63
2023/04/30 02:53:39;;;;;;;;;;;;;;;8.39;28.08;100793.44;5093405;28;19912;-64
2023/04/30 02:56:05;;;;;;;;;;;;;;;8.39;28.38;100790.78;5093788;28;19955;-64
2023/04/30 02:58:30;;;;;;;;;;;;;;;8.34;28.10;100792.13;5092316;28;20252;-64
2023/04/30 03:00:56;;;;;;;;;;;;;;;7.88;27.71;100730.34;5093674;28;19919;-63
2023/04/30 03:03:21;;;;;;;;;;;;;;;8.22;28.50;100793.47;5093918;28;19941;-64
2023/04/30 03:05:46;;;;;;;;;;;;;;;8.23;28.43;100797.00;5094051;28;19916;-63
2023/04/30 03:08:11;;;;;;;;;;;;;;;8.25;27.86;100790.47;5094371;28;19916;-63
2023/04/30 03:10:37;;;;;;;;;;;;;;;8.26;28.74;100791.31;5092665;28;19926;-64
2023/04/30 03:13:02;;;;;;;;;;;;;;;8.28;27.77;100791.97;5094005;28;19920;-64
2023/04/30 03:15:27;;;;;;;;;;;;;;;8.26;28.38;100802.00;5093318;28;20363;-63
2023/04/30 03:17:52;;;;;;;;;;;;;;;8.25;28.73;100801.19;5093964;28;19983;-64
2023/04/30 03:20:18;;;;;;;;;;;;;;;8.24;27.78;100798.66;5094050;28;19994;-64
2023/04/30 03:22:43;;;;;;;;;;;;;;;8.19;28.68;100798.34;5094924;28;19915;-64
2023/04/30 03:25:08;;;;;;;;;;;;;;;8.31;28.48;100802.34;5093742;28;19912;-64
2023/04/30 03:27:34;;;;;;;;;;;;;;;7.99;28.01;100755.09;5093743;28;19912;-64
2023/04/30 03:29:59;;;;;;;;;;;;;;;8.38;28.50;100818.56;5093551;28;19964;-63
2023/04/30 03:32:24;;;;;;;;;;;;;;;8.37;28.30;100823.06;5092936;28;20348;-64
2023/04/30 03:34:49;;;;;;;;;;;;;;;8.40;27.99;100817.38;5093770;28;19998;-64
2023/04/30 03:37:15;;;;;;;;;;;;;;;8.44;27.99;100828.59;5093459;28;19912;-64
2023/04/30 03:39:40;;;;;;;;;;;;;;;8.40;28.15;100829.94;5094118;28;19934;-64
2023/04/30 03:42:05;;;;;;;;;;;;;;;8.41;27.92;100828.91;5093319;28;19912;-64
2023/04/30 03:44:31;;;;;;;;;;;;;;;8.32;28.19;100825.41;5093143;28;19912;-63
2023/04/30 03:46:56;;;;;;;;;;;;;;;8.31;27.32;100823.75;5092819;28;20634;-64
2023/04/30 03:49:21;;;;;;;;;;;;;;;8.23;28.43;100821.09;5092613;28;19928;-63
2023/04/30 03:51:46;;;;;;;;;;;;;;;8.24;28.22;100817.41;5092824;28;19916;-64
2023/04/30 03:54:11;;;;;;;;;;;;;;;8.24;28.61;100818.22;5092651;28;19924;-64
2023/04/30 03:56:37;;;;;;;;;;;;;;;8.29;28.06;100821.22;5092267;28;19916;-63
2023/04/30 03:59:02;;;;;;;;;;;;;;;8.31;27.85;100823.75;5092640;28;19935;-64
2023/04/30 04:01:28;;;;;;;;;;;;;;;8.39;28.03;100828.25;5092597;28;19915;-64
2023/04/30 04:03:53;;;;;;;;;;;;;;;8.40;27.64;100833.44;5092519;28;19912;-63
2023/04/30 04:06:19;;;;;;;;;;;;;;;8.41;28.08;100834.25;5092655;28;19912;-64
2023/04/30 04:08:44;;;;;;;;;;;;;;;8.43;27.81;100841.16;5092387;28;20023;-63
2023/04/30 04:11:10;;;;;;;;;;;;;;;8.47;27.64;100842.47;5092581;28;20497;-65
2023/04/30 04:13:35;;;;;;;;;;;;;;;8.45;27.79;100846.31;5092087;28;19927;-64
2023/04/30 04:16:00;;;;;;;;;;;;;;;8.43;27.94;100842.97;5092722;28;19916;-64
2023/04/30 04:18:25;;;;;;;;;;;;;;;8.41;28.29;100844.97;5092570;28;20322;-63
2023/04/30 04:20:51;;;;;;;;;;;;;;;8.40;28.26;100845.97;5092162;28;20351;-63
2023/04/30 04:23:16;;;;;;;;;;;;;;;8.42;27.90;100849.34;5092494;28;20563;-64
2023/04/30 04:25:43;;;;;;;;;;;;;;;8.48;27.57;100856.69;5091793;28;19916;-63
2023/04/30 04:28:08;;;;;;;;;;;;;;;8.64;27.25;100855.84;5091556;28;19928;-64
2023/04/30 04:30:33;;;;;;;;;;;;;;;8.67;27.39;100861.69;5092322;28;20466;-64
2023/04/30 04:32:59;;;;;;;;;;;;;;;8.63;27.70;100860.31;5092288;28;19916;-64
2023/04/30 04:35:24;;;;;;;;;;;;;;;8.60;27.73;100859.84;5092248;28;19919;-63
2023/04/30 04:37:49;;;;;;;;;;;;;;;8.57;27.92;100853.00;5091821;28;19971;-64
2023/04/30 04:40:15;;;;;;;;;;;;;;;8.64;28.26;100856.66;5092136;28;19912;-65
2023/04/30 04:42:40;;;;;;;;;;;;;;;8.63;27.45;100859.50;5091706;28;20348;-63
2023/04/30 04:45:06;;;;;;;;;;;;;;;8.65;27.99;100858.31;5091655;28;20528;-64
2023/04/30 04:47:32;;;;;;;;;;;;;;;8.65;27.44;100862.84;5095224;28;20017;-63
2023/04/30 04:49:57;;;;;;;;;;;;;;;8.66;27.70;100862.69;5094814;28;19926;-63
2023/04/30 04:52:23;;;;;;;;;;;;;;;8.73;27.88;100873.56;5092158;28;19912;-62
2023/04/30 04:54:48;;;;;;;;;;;;;;;8.80;27.61;100871.81;5092189;28;20372;-62
2023/04/30 04:57:13;;;;;;;;;;;;;;;8.88;27.62;100879.03;5092149;28;19912;-62
2023/04/30 04:59:39;;;;;;;;;;;;;;;8.95;27.42;100879.16;5091693;28;19920;-63
2023/04/30 05:02:04;;;;;;;;;;;;;;;8.90;27.60;100877.00;5091610;28;20023;-63
2023/04/30 05:04:29;;;;;;;;;;;;;;;9.01;27.27;100878.47;5091911;28;19919;-64
2023/04/30 05:06:54;;;;;;;;;;;;;;;9.05;27.47;100885.16;5092197;28;19919;-63
2023/04/30 05:09:20;;;;;;;;;;;;;;;9.12;27.29;100886.16;5092272;28;20375;-63
2023/04/30 05:11:47;;;;;;;;;;;;;;;9.14;27.35;100889.47;5092244;28;19916;-63
2023/04/30 05:14:13;;;;;;;;;;;;;;;9.17;27.13;100891.78;5091004;28;19921;-65
2023/04/30 05:16:38;;;;;;;;;;;;;;;9.24;26.98;100889.25;5091628;28;19958;-64
2023/04/30 05:19:03;;;;;;;;;;;;;;;9.15;27.31;100890.31;5091674;28;19982;-63
2023/04/30 05:21:28;;;;;;;;;;;;;;;9.14;27.34;100888.63;5091636;28;20037;-63
2023/04/30 05:23:54;;;;;;;;;;;;;;;9.23;27.14;100896.47;5090663;28;19927;-63
2023/04/30 05:26:19;;;;;;;;;;;;;;;9.28;26.95;100890.56;5091003;28;19912;-63
2023/04/30 05:28:45;;;;;;;;;;;;;;;9.32;27.19;100893.75;5090870;28;19966;-63
2023/04/30 05:31:10;;;;;;;;;;;;;;;9.34;26.85;100897.91;5090708;28;19947;-64
2023/04/30 05:33:35;;;;;;;;;;;;;;;9.39;26.96;100898.22;5090698;28;19956;-62
2023/04/30 05:36:01;;;;;;;;;;;;;;;9.39;26.77;100900.09;5091179;28;19919;-60
2023/04/30 05:38:26;;;;;;;;;;;;;;;9.44;26.81;100901.22;5091089;28;19923;-63
2023/04/30 05:40:52;;;;;;;;;;;;;;;9.64;26.52;100907.00;5091158;28;20574;-63
2023/04/30 05:43:17;;;;;;;;;;;;;;;9.69;26.41;100909.13;5090450;28;19923;-63
2023/04/30 05:45:42;;;;;;;;;;;;;;;9.68;26.49;100894.88;5091246;28;19943;-64
2023/04/30 05:48:07;;;;;;;;;;;;;;;9.73;26.62;100902.38;5091388;28;19951;-62
2023/04/30 05:50:33;;;;;;;;;;;;;;;9.61;26.63;100906.50;5091503;28;20264;-62
2023/04/30 05:52:58;;;;;;;;;;;;;;;9.75;26.59;100899.53;5091253;28;19916;-63
2023/04/30 05:55:23;;;;;;;;;;;;;;;9.79;26.72;100904.38;5091449;28;20316;-64
2023/04/30 05:57:48;;;;;;;;;;;;;;;9.83;27.00;100905.69;5091327;28;19957;-65
2023/04/30 06:00:14;;;;;;;;;;;;;;;9.90;26.40;100905.81;5091636;28;19972;-64
2023/04/30 06:02:40;;;;;;;;;;;;;;;9.99;26.12;100910.13;5089508;28;19919;-63
2023/04/30 06:05:06;;;;;;;;;;;;;;;10.06;26.49;100912.91;5091296;28;19916;-65
2023/04/30 06:07:31;;;;;;;;;;;;;;;10.14;26.30;100912.84;5090023;28;19912;-64
2023/04/30 06:09:57;;;;;;;;;;;;;;;10.14;26.13;100912.84;5091669;28;19921;-64
2023/04/30 06:12:22;;;;;;;;;;;;;;;10.30;25.80;100908.38;5091527;28;19928;-63
2023/04/30 06:14:48;;;;;;;;;;;;;;;10.34;25.63;100907.84;5091402;28;20527;-64
2023/04/30 06:17:14;;;;;;;;;;;;;;;10.45;25.71;100910.09;5090568;28;19912;-63
2023/04/30 06:19:40;;;;;;;;;;;;;;;10.34;25.67;100918.56;5090363;28;19916;-64
2023/04/30 06:22:05;;;;;;;;;;;;;;;10.51;25.74;100916.59;5090425;28;19920;-63
2023/04/30 06:24:30;;;;;;;;;;;;;;;10.57;25.51;100915.88;5089982;28;19916;-63
2023/04/30 06:26:55;;;;;;;;;;;;;;;10.51;25.54;100923.81;5090603;28;19926;-62
2023/04/30 06:29:23;;;;;;;;;;;;;;;10.51;25.53;100921.97;5090548;28;19920;-63
2023/04/30 06:31:48;;;;;;;;;;;;;;;10.56;25.51;100926.78;5090053;28;19969;-64
2023/04/30 06:34:13;;;;;;;;;;;;;;;10.62;25.39;100928.75;5090599;28;20317;-63
2023/04/30 06:36:38;;;;;;;;;;;;;;;10.79;25.28;100930.25;5090610;28;19920;-63
2023/04/30 06:39:04;;;;;;;;;;;;;;;10.89;24.96;100932.69;5089867;28;19920;-63
2023/04/30 06:41:29;;;;;;;;;;;;;;;10.82;25.46;100929.88;5090315;28;19919;-63
2023/04/30 06:43:54;;;;;;;;;;;;;;;10.90;25.48;100928.13;5090304;28;19916;-65
2023/04/30 06:46:20;;;;;;;;;;;;;;;10.89;25.69;100915.72;5092989;28;20014;-65
2023/04/30 06:48:45;;;;;;;;;;;;;;;10.99;25.32;100925.16;5094253;28;19943;-65
2023/04/30 06:51:10;;;;;;;;;;;;;;;10.94;24.63;100930.28;5094134;28;20003;-66
2023/04/30 06:53:35;;;;;;;;;;;;;;;11.05;25.28;100929.00;5094359;28;19912;-65
2023/04/30 06:56:01;;;;;;;;;;;;;;;11.19;24.83;100941.56;5094232;28;19993;-65
2023/04/30 06:58:26;;;;;;;;;;;;;;;11.16;24.44;100927.66;5094254;28;19923;-65
2023/04/30 07:00:52;;;;;;;;;;;;;;;11.17;24.28;100915.91;5094171;28;19916;-64
2023/04/30 07:03:17;;;;;;;;;;;;;;;11.01;24.07;100947.34;5093359;28;19920;-64
2023/04/30 07:05:43;;;;;;;;;;;;;;;10.99;24.47;100922.47;5093907;28;20385;-63
2023/04/30 07:08:08;;;;;;;;;;;;;;;11.08;24.01;100925.09;5092829;28;20368;-63
2023/04/30 07:10:33;;;;;;;;;;;;;;;11.16;23.92;100925.84;5092837;28;19939;-62
2023/04/30 07:12:58;;;;;;;;;;;;;;;11.06;23.62;100933.31;5092365;28;19924;-64
2023/04/30 07:15:24;;;;;;;;;;;;;;;11.24;23.51;100935.66;5093066;28;19916;-63
2023/04/30 07:17:49;;;;;;;;;;;;;;;11.29;23.69;100930.56;5093222;28;19965;-65
2023/04/30 07:20:14;;;;;;;;;;;;;;;11.15;23.42;100934.06;5093819;28;19912;-62
2023/04/30 07:22:44;;;;;;;;;;;;;;;11.40;23.19;100935.47;5093811;28;19919;-61
2023/04/30 07:25:12;;;;;;;;;;;;;;;11.32;23.34;100942.78;5092877;28;19938;-64
2023/04/30 07:27:38;;;;;;;;;;;;;;;11.40;23.45;100939.97;5093229;28;19916;-63
2023/04/30 07:30:04;;;;;;;;;;;;;;;11.38;22.88;100947.41;5093852;28;19962;-62
2023/04/30 07:32:29;;;;;;;;;;;;;;;11.47;23.29;100945.47;5093741;28;19944;-60
2023/04/30 07:34:54;;;;;;;;;;;;;;;11.51;22.92;100946.75;5093796;28;19912;-63
2023/04/30 07:37:20;;;;;;;;;;;;;;;11.71;22.84;100942.44;5093348;28;19912;-63
2023/04/30 07:39:46;;;;;;;;;;;;;;;11.77;22.91;100951.59;5093542;28;19995;-63
2023/04/30 07:42:11;;;;;;;;;;;;;;;11.76;22.98;100942.72;5093659;28;19943;-64
2023/04/30 07:44:36;;;;;;;;;;;;;;;11.73;23.05;100937.69;5091831;28;20494;-62
2023/04/30 07:47:01;;;;;;;;;;;;;;;11.62;23.03;100946.25;5092765;28;19998;-62
2023/04/30 07:49:27;;;;;;;;;;;;;;;11.78;22.52;100937.97;5092781;28;19939;-62
2023/04/30 07:51:52;;;;;;;;;;;;;;;11.81;22.84;100948.34;5092357;28;19916;-63
2023/04/30 07:54:17;;;;;;;;;;;;;;;11.85;22.16;100954.19;5092769;28;19930;-63
2023/04/30 07:56:42;;;;;;;;;;;;;;;12.09;22.30;100953.03;5092741;28;19912;-63
2023/04/30 07:59:07;;;;;;;;;;;;;;;12.16;22.34;100940.44;5093080;28;19916;-62
2023/04/30 08:01:33;;;;;;;;;;;;;;;12.07;22.18;100947.00;5093045;28;19919;-62
2023/04/30 08:03:58;;;;;;;;;;;;;;;12.17;22.36;100957.47;5091392;28;19957;-63
2023/04/30 08:06:24;;;;;;;;;;;;;;;12.12;22.12;100959.88;5092667;28;19913;-62
2023/04/30 08:08:49;;;;;;;;;;;;;;;12.03;22.17;100956.47;5092962;28;20318;-62
2023/04/30 08:11:15;;;;;;;;;;;;;;;12.20;22.32;100959.75;5078790;28;19948;-68
2023/04/30 08:13:40;;;;;;;;;;;;;;;12.28;22.43;100956.94;5088724;28;19920;-65
2023/04/30 08:16:06;;;;;;;;;;;;;;;12.55;21.85;100968.78;5090237;28;19916;-65
2023/04/30 08:18:31;;;;;;;;;;;;;;;12.54;21.85;100961.72;5092638;28;19912;-66
2023/04/30 08:20:56;;;;;;;;;;;;;;;12.51;21.54;100934.34;5090211;28;20007;-66
2023/04/30 08:23:21;;;;;;;;;;;;;;;12.83;21.69;100957.16;5091802;28;19916;-65
2023/04/30 08:25:47;;;;;;;;;;;;;;;12.82;20.90;100960.09;5095652;28;19966;-65
2023/04/30 08:28:12;;;;;;;;;;;;;;;12.91;21.26;100965.13;5096596;28;19923;-65
2023/04/30 08:30:38;;;;;;;;;;;;;;;13.05;21.37;100949.84;5093490;28;20024;-65
2023/04/30 08:33:03;;;;;;;;;;;;;;;13.13;21.25;100962.34;5090535;28;19923;-65
2023/04/30 08:35:28;;;;;;;;;;;;;;;13.02;20.85;100955.66;5089568;28;20360;-65
2023/04/30 08:37:54;;;;;;;;;;;;;;;12.84;20.78;100956.16;5091340;28;20428;-63
2023/04/30 08:40:19;;;;;;;;;;;;;;;13.09;20.93;100956.53;5091413;28;19912;-66
2023/04/30 08:42:49;;;;;;;;;;;;;;;13.28;21.11;100944.19;5093709;28;20376;-65
2023/04/30 08:45:15;;;;;;;;;;;;;;;13.30;20.59;100952.94;5090578;28;19958;-65
2023/04/30 08:47:40;;;;;;;;;;;;;;;13.48;20.38;100952.44;5089965;28;20348;-65
2023/04/30 08:50:06;;;;;;;;;;;;;;;13.54;20.50;100953.50;5092345;28;19970;-65
2023/04/30 08:52:33;;;;;;;;;;;;;;;13.53;20.28;100951.81;5090037;28;19934;-64
2023/04/30 08:55:00;;;;;;;;;;;;;;;13.77;20.47;100946.91;5091307;28;19920;-65
2023/04/30 08:57:25;;;;;;;;;;;;;;;13.92;20.09;100945.69;5091130;28;19927;-65
2023/04/30 08:59:51;;;;;;;;;;;;;;;13.95;20.00;100949.88;5088934;28;19912;-64
2023/04/30 09:02:16;;;;;;;;;;;;;;;14.00;19.70;100947.38;5092302;28;20021;-64
2023/04/30 09:04:41;;;;;;;;;;;;;;;13.94;19.97;100959.81;5089583;28;19920;-63
2023/04/30 09:07:07;;;;;;;;;;;;;;;13.94;20.09;100961.69;5092275;28;19916;-65
2023/04/30 09:09:37;;;;;;;;;;;;;;;14.11;20.20;100960.31;5088492;28;19924;-65
2023/04/30 09:12:18;;;;;;;;;;;;;;;14.17;20.38;100952.41;5089932;28;19916;-64
2023/04/30 09:14:58;;;;;;;;;;;;;;;14.33;19.86;100960.94;5091088;28;19919;-64
2023/04/30 09:17:24;;;;;;;;;;;;;;;14.42;19.77;100961.59;5089440;28;19919;-64
2023/04/30 09:19:50;;;;;;;;;;;;;;;14.73;19.54;100956.63;5092022;28;19912;-65
2023/04/30 09:22:20;;;;;;;;;;;;;;;14.95;19.88;100954.50;5089795;28;19916;-66
2023/04/30 09:24:46;;;;;;;;;;;;;;;14.86;18.89;100954.75;5090568;28;19916;-65
2023/04/30 09:27:16;;;;;;;;;;;;;;;15.10;18.78;100949.72;5091852;28;20523;-64
2023/04/30 09:29:41;;;;;;;;;;;;;;;15.01;18.34;100969.91;5085603;28;19931;-65
2023/04/30 09:32:07;;;;;;;;;;;;;;;14.96;18.69;100961.59;5091490;28;19916;-65
2023/04/30 09:34:32;;;;;;;;;;;;;;;15.25;18.23;100947.59;5087588;28;19935;-64
2023/04/30 09:36:58;;;;;;;;;;;;;;;15.41;18.38;100946.28;5070075;28;19920;-66
2023/04/30 09:39:23;;;;;;;;;;;;;;;15.47;18.13;100956.25;5089571;28;19951;-65
2023/04/30 09:41:52;;;;;;;;;;;;;;;15.49;18.85;100956.06;5088876;28;19920;-65
2023/04/30 09:44:36;;;;;;;;;;;;;;;15.64;18.16;100959.31;5089083;28;19962;-66
2023/04/30 09:47:02;;;;;;;;;;;;;;;15.70;18.25;100957.63;5087714;28;20304;-66
2023/04/30 09:49:27;;;;;;;;;;;;;;;15.97;17.63;100958.34;5090470;28;19927;-65
2023/04/30 09:51:54;;;;;;;;;;;;;;;16.16;17.64;100956.56;5091304;28;19913;-65
2023/04/30 09:54:21;;;;;;;;;;;;;;;16.12;17.17;100962.63;5088387;28;19937;-65
2023/04/30 09:56:46;;;;;;;;;;;;;;;16.00;17.29;100962.50;5090191;28;19999;-68
2023/04/30 09:59:12;;;;;;;;;;;;;;;16.16;17.24;100950.31;5087896;28;20011;-65
2023/04/30 10:01:38;;;;;;;;;;;;;;;16.34;17.00;100958.50;5090076;28;20490;-65
2023/04/30 10:04:04;;;;;;;;;;;;;;;16.46;16.68;100964.06;5089994;28;19954;-65
2023/04/30 10:06:34;;;;;;;;;;;;;;;16.42;16.42;100963.69;5088371;28;19916;-63
2023/04/30 10:09:02;;;;;;;;;;;;;;;16.67;16.75;100957.44;5090918;28;19926;-64
2023/04/30 10:11:27;;;;;;;;;;;;;;;16.64;16.10;100963.28;5087899;28;19935;-64
2023/04/30 10:13:52;;;;;;;;;;;;;;;16.87;15.94;100961.88;5090262;28;20650;-64
2023/04/30 10:16:26;;;;;;;;;;;;;;;17.06;16.82;100960.03;5090395;28;19974;-63
2023/04/30 10:18:52;;;;;;;;;;;;;;;17.37;16.92;100948.22;5088583;28;19912;-64
2023/04/30 10:21:21;;;;;;;;;;;;;;;17.66;16.94;100956.63;5094378;28;19923;-63
2023/04/30 10:23:47;;;;;;;;;;;;;;;17.53;15.13;100950.31;5091329;28;19989;-62
2023/04/30 10:26:13;;;;;;;;;;;;;;;17.44;14.68;100946.25;5094992;28;19985;-63
2023/04/30 10:28:39;;;;;;;;;;;;;;;17.59;14.89;100945.84;5093627;28;19927;-63
2023/04/30 10:31:06;;;;;;;;;;;;;;;17.86;15.65;100949.06;5091694;28;19920;-63
2023/04/30 10:33:41;;;;;;;;;;;;;;;17.94;16.11;100950.63;5095141;28;20265;-62
2023/04/30 10:36:11;;;;;;;;;;;;;;;18.09;16.31;100950.19;5092550;28;19920;-64
2023/04/30 10:38:36;;;;;;;;;;;;;;;18.58;16.54;100943.56;5092966;28;20329;-62
2023/04/30 10:41:05;;;;;;;;;;;;;;;18.76;15.56;100939.09;5094182;28;19923;-63
2023/04/30 10:43:30;;;;;;;;;;;;;;;19.20;16.23;100938.72;5092889;28;19912;-63
2023/04/30 10:45:57;;;;;;;;;;;;;;;19.04;15.69;100934.84;5093569;28;20249;-64
2023/04/30 10:48:26;;;;;;;;;;;;;;;19.15;14.99;100944.91;5090318;28;19955;-63
2023/04/30 10:50:55;;;;;;;;;;;;;;;19.45;15.25;100935.72;5094276;28;19935;-63
2023/04/30 10:53:21;;;;;;;;;;;;;;;19.70;16.32;100921.75;5093880;28;19931;-62
2023/04/30 10:55:57;;;;;;;;;;;;;;;19.86;15.02;100933.81;5093169;28;19915;-64
2023/04/30 10:58:23;;;;;;;;;;;;;;;19.97;15.12;100930.22;5094096;28;19912;-65
2023/04/30 11:01:09;;;;;;;;;;;;;;;20.06;14.70;100933.38;5091475;28;19936;-64
2023/04/30 11:03:36;;;;;;;;;;;;;;;20.34;14.85;100918.00;5092808;28;19912;-63
2023/04/30 11:06:07;;;;;;;;;;;;;;;20.43;13.95;100928.28;5091908;28;20364;-64
2023/04/30 11:08:36;;;;;;;;;;;;;;;20.81;14.15;100917.69;5090779;28;19912;-63
2023/04/30 11:11:03;;;;;;;;;;;;;;;21.06;14.16;100919.94;5092245;28;19923;-64
2023/04/30 11:13:37;;;;;;;;;;;;;;;21.32;13.37;100939.41;5089366;28;20012;-63
2023/04/30 11:16:03;;;;;;;;;;;;;;;21.65;14.64;100913.88;5091186;28;19927;-63
2023/04/30 11:18:30;;;;;;;;;;;;;;;22.04;14.39;100920.00;5092296;28;20377;-63
2023/04/30 11:20:56;;;;;;;;;;;;;;;21.88;13.21;100918.22;5092905;28;19962;-64
2023/04/30 11:23:22;;;;;;;;;;;;;;;21.73;13.14;100910.69;5094248;28;19919;-64
2023/04/30 11:25:47;;;;;;;;;;;;;;;21.53;13.41;100930.41;5092006;28;20047;-64
2023/04/30 11:28:16;;;;;;;;;;;;;;;21.62;13.50;100923.41;5096042;28;19916;-64
2023/04/30 11:30:49;;;;;;;;;;;;;;;21.91;13.51;100922.34;5093374;28;19920;-64
2023/04/30 11:33:15;;;;;;;;;;;;;;;21.84;13.02;100912.44;5094282;28;20011;-63
2023/04/30 11:35:41;;;;;;;;;;;;;;;21.59;12.83;100917.63;5093904;28;20325;-64
2023/04/30 11:38:08;;;;;;;;;;;;;;;21.61;12.68;100921.75;5089767;28;19940;-64
2023/04/30 11:40:34;;;;;;;;;;;;;;;21.14;13.35;100926.91;5092984;28;19919;-64
2023/04/30 11:42:59;;;;;;;;;;;;;;;21.13;13.65;100919.78;5091409;28;19912;-64
2023/04/30 11:45:26;;;;;;;;;;;;;;;21.62;12.87;100917.13;5092099;28;19923;-64
2023/04/30 11:47:53;;;;;;;;;;;;;;;21.70;13.43;100924.88;5092853;28;19995;-64
2023/04/30 11:50:21;;;;;;;;;;;;;;;22.08;13.84;100931.25;5089141;28;19920;-62
2023/04/30 11:52:49;;;;;;;;;;;;;;;21.11;12.98;100920.00;5092823;28;19954;-63
2023/04/30 11:55:16;;;;;;;;;;;;;;;21.60;13.29;100919.28;5091354;28;19947;-64
2023/04/30 11:57:42;;;;;;;;;;;;;;;22.09;13.62;100924.72;5092317;28;19912;-65
2023/04/30 12:00:15;;;;;;;;;;;;;;;21.57;12.22;100928.00;5092383;28;19953;-63
2023/04/30 12:02:44;;;;;;;;;;;;;;;21.71;13.50;100914.75;5089242;28;19918;-64
2023/04/30 12:05:14;;;;;;;;;;;;;;;22.51;12.96;100923.16;5092264;28;20340;-65
2023/04/30 12:07:43;;;;;;;;;;;;;;;22.85;11.83;100917.38;5089248;28;19923;-64
2023/04/30 12:10:08;;;;;;;;;;;;;;;22.85;12.02;100911.91;5091113;28;19931;-65
2023/04/30 12:12:35;;;;;;;;;;;;;;;23.10;12.41;100913.97;5092175;28;19920;-64
2023/04/30 12:15:09;;;;;;;;;;;;;;;23.26;12.13;100909.41;5089893;28;19912;-63
2023/04/30 12:17:35;;;;;;;;;;;;;;;23.56;11.67;100922.41;5091670;28;20273;-65
2023/04/30 12:20:00;;;;;;;;;;;;;;;23.83;11.41;100915.91;5091033;28;19912;-65
2023/04/30 12:22:26;;;;;;;;;;;;;;;24.05;11.86;100913.75;5093171;28;20042;-65
2023/04/30 12:24:52;;;;;;;;;;;;;;;23.76;11.59;100924.38;5092305;28;20040;-64
2023/04/30 12:27:18;;;;;;;;;;;;;;;24.03;11.28;100923.34;5089914;28;19916;-65
2023/04/30 12:29:47;;;;;;;;;;;;;;;24.17;10.93;100915.41;5091628;28;20379;-64
2023/04/30 12:32:17;;;;;;;;;;;;;;;24.14;10.92;100922.25;5088579;28;20021;-65
2023/04/30 12:34:43;;;;;;;;;;;;;;;23.84;11.18;100929.34;5090609;28;19916;-65
2023/04/30 12:37:08;;;;;;;;;;;;;;;23.93;11.75;100921.41;5090884;28;19927;-66